Time;durP1;ratioP1;P1;durP2;ratioP2;P2;SDS_P1;SDS_P2;PMS_P1;PMS_P2;Temp;Humidity;BMP_temperature;BMP_pressure;BME280_temperature;BME280_humidity;BME280_pressure;Samples;Min_cycle;Max_cycle;Signal;HPM_P1;HPM_P2
2023/12/09 00:00:44;;;;;;;;;;;37.00;77.70;;;;;;4953489;28;19933;-73
2023/12/09 00:03:16;;;;;;;;;;;37.00;77.80;;;;;;4958201;28;19919;-83
2023/12/09 00:05:43;;;;;;;;;;;37.00;77.80;;;;;;4958483;28;19919;-76
2023/12/09 00:08:10;;;;;;;;;;;37.10;77.00;;;;;;4954342;28;20370;-71
2023/12/09 00:10:37;;;;;;;;;;;37.20;77.10;;;;;;4953752;28;19911;-73
2023/12/09 00:13:06;;;;;;;;;;;37.30;76.60;;;;;;4963685;28;19921;-70
2023/12/09 00:15:33;;;;;;;;;;;37.40;76.80;;;;;;4965657;28;19976;-77
2023/12/09 00:18:00;;;;;;;;;;;37.60;76.40;;;;;;4963748;28;19945;-74
2023/12/09 00:20:26;;;;;;;;;;;37.70;75.70;;;;;;4963983;28;19922;-79
2023/12/09 00:22:53;;;;;;;;;;;37.70;75.10;;;;;;4962356;28;19914;-74
2023/12/09 00:25:21;;;;;;;;;;;37.80;75.60;;;;;;4963082;28;19911;-80
2023/12/09 00:27:48;;;;;;;;;;;37.70;74.80;;;;;;4963025;28;19914;-72
2023/12/09 00:30:15;;;;;;;;;;;37.70;74.50;;;;;;4963026;28;19910;-75
2023/12/09 00:32:42;;;;;;;;;;;37.80;74.20;;;;;;4963970;28;19921;-75
2023/12/09 00:35:14;;;;;;;;;;;37.90;75.00;;;;;;4964911;28;19961;-78
2023/12/09 00:37:41;;;;;;;;;;;38.10;74.00;;;;;;4961337;28;19914;-71
2023/12/09 00:40:12;;;;;;;;;;;38.20;73.50;;;;;;4960460;28;20282;-72
2023/12/09 00:42:38;;;;;;;;;;;38.40;73.40;;;;;;4961755;28;19914;-72
2023/12/09 00:45:05;;;;;;;;;;;38.60;73.00;;;;;;4959979;28;20392;-79
2023/12/09 00:47:32;;;;;;;;;;;38.80;72.50;;;;;;4960391;28;20405;-70
2023/12/09 00:49:59;;;;;;;;;;;39.00;72.10;;;;;;4961182;28;19914;-71
2023/12/09 00:52:28;;;;;;;;;;;39.20;71.90;;;;;;4960966;28;20260;-78
2023/12/09 00:55:00;;;;;;;;;;;39.20;71.20;;;;;;4963245;28;19917;-81
2023/12/09 00:57:30;;;;;;;;;;;39.40;71.10;;;;;;4961658;28;19934;-78
2023/12/09 00:59:57;;;;;;;;;;;39.50;70.70;;;;;;4963148;28;20024;-73
2023/12/09 01:02:26;;;;;;;;;;;39.70;70.50;;;;;;4961718;28;19918;-77
2023/12/09 01:05:11;;;;;;;;;;;39.90;70.30;;;;;;4964672;28;20881;-71
2023/12/09 01:07:39;;;;;;;;;;;40.10;69.60;;;;;;4962791;28;20299;-83
2023/12/09 01:10:06;;;;;;;;;;;40.20;69.30;;;;;;4957025;28;20347;-73
2023/12/09 01:12:32;;;;;;;;;;;40.30;68.00;;;;;;4955530;28;19980;-74
2023/12/09 01:14:59;;;;;;;;;;;40.30;67.90;;;;;;4969919;28;19963;-76
2023/12/09 01:17:25;;;;;;;;;;;40.30;67.30;;;;;;4968722;28;19910;-77
2023/12/09 01:19:52;;;;;;;;;;;40.40;68.10;;;;;;4984232;28;19910;-76
2023/12/09 01:22:19;;;;;;;;;;;40.50;67.50;;;;;;4971830;28;19922;-77
2023/12/09 01:24:46;;;;;;;;;;;40.60;66.70;;;;;;4971326;28;19914;-78
2023/12/09 01:27:12;;;;;;;;;;;40.80;66.10;;;;;;4971401;28;19967;-76
2023/12/09 01:29:40;;;;;;;;;;;40.90;65.30;;;;;;4971363;28;20472;-74
2023/12/09 01:32:06;;;;;;;;;;;41.10;64.80;;;;;;4971674;28;19911;-75
2023/12/09 01:34:34;;;;;;;;;;;41.20;64.50;;;;;;4973094;28;19914;-80
2023/12/09 01:37:00;;;;;;;;;;;41.30;63.60;;;;;;4986359;28;19919;-78
2023/12/09 01:39:27;;;;;;;;;;;41.50;63.60;;;;;;4983003;28;19914;-76
2023/12/09 01:41:54;;;;;;;;;;;41.60;63.80;;;;;;4981244;28;19930;-79
2023/12/09 01:44:21;;;;;;;;;;;41.80;63.60;;;;;;4975923;28;19964;-78
2023/12/09 01:46:48;;;;;;;;;;;42.00;62.90;;;;;;4971469;28;19910;-73
2023/12/09 01:49:14;;;;;;;;;;;42.10;62.30;;;;;;4970887;28;20005;-79
2023/12/09 01:51:42;;;;;;;;;;;42.00;62.50;;;;;;4965264;28;19969;-72
2023/12/09 01:54:10;;;;;;;;;;;41.90;61.70;;;;;;4968082;28;19997;-79
2023/12/09 01:56:36;;;;;;;;;;;41.90;61.60;;;;;;4968753;28;19942;-76
2023/12/09 01:59:03;;;;;;;;;;;42.00;61.70;;;;;;4962989;28;20379;-75
2023/12/09 02:01:31;;;;;;;;;;;42.20;61.90;;;;;;4966542;28;19918;-76
2023/12/09 02:03:58;;;;;;;;;;;42.30;61.70;;;;;;4961521;28;19921;-75
2023/12/09 02:06:25;;;;;;;;;;;42.30;61.30;;;;;;4951715;28;19911;-76
2023/12/09 02:08:51;;;;;;;;;;;42.40;60.60;;;;;;4966843;28;19918;-77
2023/12/09 02:11:36;;;;;;;;;;;42.50;60.30;;;;;;4969826;28;19944;-74
2023/12/09 02:14:07;;;;;;;;;;;42.50;60.90;;;;;;4970059;28;19926;-76
2023/12/09 02:16:41;;;;;;;;;;;42.70;60.50;;;;;;4955346;28;20405;-78
2023/12/09 02:19:12;;;;;;;;;;;42.90;60.30;;;;;;4969583;28;19914;-78
2023/12/09 02:21:58;;;;;;;;;;;43.00;59.70;;;;;;4970157;28;20395;-80
2023/12/09 02:24:26;;;;;;;;;;;43.20;60.30;;;;;;4971066;28;19914;-88
2023/12/09 02:26:53;;;;;;;;;;;43.30;58.90;;;;;;4968475;28;19914;-85
2023/12/09 02:29:20;;;;;;;;;;;43.30;59.00;;;;;;4962636;28;19914;-73
2023/12/09 02:31:50;;;;;;;;;;;43.30;59.00;;;;;;4969969;28;20375;-73
2023/12/09 02:34:17;;;;;;;;;;;43.40;58.30;;;;;;4970116;28;20363;-72
2023/12/09 02:36:45;;;;;;;;;;;43.50;58.00;;;;;;4954467;28;19941;-72
2023/12/09 02:39:13;;;;;;;;;;;43.50;59.70;;;;;;4969286;28;19967;-71
2023/12/09 02:41:41;;;;;;;;;;;43.70;61.70;;;;;;4961784;28;19933;-72
2023/12/09 02:44:08;;;;;;;;;;;43.80;62.10;;;;;;4959979;28;20286;-70
2023/12/09 02:46:34;;;;;;;;;;;44.00;62.90;;;;;;4967740;28;19918;-71
2023/12/09 02:49:02;;;;;;;;;;;44.00;62.80;;;;;;4967112;28;20290;-85
2023/12/09 02:51:30;;;;;;;;;;;43.60;61.90;;;;;;4954043;28;19922;-83
2023/12/09 02:53:57;;;;;;;;;;;43.20;63.30;;;;;;4969453;28;19920;-77
2023/12/09 02:56:23;;;;;;;;;;;42.50;64.20;;;;;;4970199;28;20371;-80
2023/12/09 02:58:50;;;;;;;;;;;42.10;64.90;;;;;;4964480;28;19957;-72
2023/12/09 03:01:16;;;;;;;;;;;41.50;65.20;;;;;;4964970;28;20436;-79
2023/12/09 03:03:43;;;;;;;;;;;41.00;66.10;;;;;;4969794;28;19919;-75
2023/12/09 03:06:10;;;;;;;;;;;40.80;67.50;;;;;;4970042;28;20286;-80
2023/12/09 03:08:36;;;;;;;;;;;40.90;68.20;;;;;;4969863;28;19914;-81
2023/12/09 03:11:03;;;;;;;;;;;40.60;67.60;;;;;;4966912;28;19921;-75
2023/12/09 03:13:29;;;;;;;;;;;40.00;68.50;;;;;;4971878;28;19910;-82
2023/12/09 03:15:56;;;;;;;;;;;39.50;69.70;;;;;;4973403;28;19910;-79
2023/12/09 03:18:23;;;;;;;;;;;38.90;70.90;;;;;;4973646;28;19925;-79
2023/12/09 03:20:49;;;;;;;;;;;38.30;72.30;;;;;;4972731;28;19922;-76
2023/12/09 03:23:16;;;;;;;;;;;38.00;73.30;;;;;;4964501;28;19937;-75
2023/12/09 03:25:43;;;;;;;;;;;38.70;73.60;;;;;;4973073;28;19929;-78
2023/12/09 03:28:09;;;;;;;;;;;40.10;71.30;;;;;;4973124;28;19910;-77
2023/12/09 03:30:36;;;;;;;;;;;40.10;70.10;;;;;;4972218;28;19964;-78
2023/12/09 03:33:02;;;;;;;;;;;39.80;69.90;;;;;;4973050;28;19946;-75
2023/12/09 03:35:29;;;;;;;;;;;39.20;71.10;;;;;;4970832;28;20330;-71
2023/12/09 03:37:56;;;;;;;;;;;38.50;72.50;;;;;;4972106;28;19956;-74
2023/12/09 03:40:22;;;;;;;;;;;38.10;73.80;;;;;;4968195;28;20302;-73
2023/12/09 03:42:49;;;;;;;;;;;37.90;74.20;;;;;;4965420;28;19919;-75
2023/12/09 03:45:15;;;;;;;;;;;38.20;75.20;;;;;;4969038;28;19921;-84
2023/12/09 03:47:42;;;;;;;;;;;39.00;72.50;;;;;;4962442;28;19964;-73
2023/12/09 03:50:09;;;;;;;;;;;38.80;72.60;;;;;;4971675;28;20362;-71
2023/12/09 03:52:35;;;;;;;;;;;38.30;72.60;;;;;;4963346;28;20537;-71
2023/12/09 03:55:03;;;;;;;;;;;37.80;73.70;;;;;;4970544;28;19914;-72
2023/12/09 03:57:30;;;;;;;;;;;37.40;74.90;;;;;;4967224;28;19914;-72
2023/12/09 03:59:57;;;;;;;;;;;36.80;75.50;;;;;;4969842;28;19917;-81
2023/12/09 04:02:23;;;;;;;;;;;36.30;76.70;;;;;;4971622;28;19933;-74
2023/12/09 04:04:53;;;;;;;;;;;36.10;77.20;;;;;;4976977;28;20003;-79
2023/12/09 04:07:19;;;;;;;;;;;36.40;77.20;;;;;;4968351;28;20033;-79
2023/12/09 04:09:46;;;;;;;;;;;37.60;75.80;;;;;;4964222;28;19915;-75
2023/12/09 04:12:12;;;;;;;;;;;39.30;73.30;;;;;;4964133;28;19910;-77
2023/12/09 04:14:39;;;;;;;;;;;40.70;71.80;;;;;;4969716;28;19914;-76
2023/12/09 04:17:06;;;;;;;;;;;42.00;69.20;;;;;;4989626;28;19910;-71
2023/12/09 04:19:32;;;;;;;;;;;42.40;67.90;;;;;;4970869;28;19980;-77
2023/12/09 04:21:59;;;;;;;;;;;42.00;67.60;;;;;;4955501;28;20371;-75
2023/12/09 04:24:25;;;;;;;;;;;40.90;68.60;;;;;;4966938;28;19914;-69
2023/12/09 04:26:52;;;;;;;;;;;39.70;70.40;;;;;;4962354;28;20283;-74
2023/12/09 04:29:20;;;;;;;;;;;38.70;71.50;;;;;;4963558;28;19964;-73
2023/12/09 04:31:47;;;;;;;;;;;37.90;72.60;;;;;;4961072;28;19965;-78
2023/12/09 04:34:15;;;;;;;;;;;37.30;73.70;;;;;;4962768;28;19918;-71
2023/12/09 04:36:42;;;;;;;;;;;36.70;74.50;;;;;;4962887;28;19925;-71
2023/12/09 04:39:08;;;;;;;;;;;36.10;75.50;;;;;;4967307;28;19940;-82
2023/12/09 04:41:35;;;;;;;;;;;35.70;76.00;;;;;;4964350;28;19930;-73
2023/12/09 04:44:02;;;;;;;;;;;35.40;76.60;;;;;;4967038;28;19922;-71
2023/12/09 04:46:30;;;;;;;;;;;35.20;77.20;;;;;;4962260;28;20429;-69
2023/12/09 04:48:56;;;;;;;;;;;35.00;77.20;;;;;;4966842;28;19914;-70
2023/12/09 04:51:23;;;;;;;;;;;34.90;77.50;;;;;;4961344;28;19925;-69
2023/12/09 04:53:50;;;;;;;;;;;34.70;78.10;;;;;;4961500;28;19946;-70
2023/12/09 04:56:17;;;;;;;;;;;34.60;78.00;;;;;;4964209;28;19960;-69
2023/12/09 04:58:44;;;;;;;;;;;34.50;78.10;;;;;;4965191;28;19922;-70
2023/12/09 05:01:10;;;;;;;;;;;34.30;78.50;;;;;;4965570;28;20025;-73
2023/12/09 05:03:37;;;;;;;;;;;34.00;78.90;;;;;;4963363;28;19914;-74
2023/12/09 05:06:04;;;;;;;;;;;34.00;79.30;;;;;;4961012;28;19940;-70
2023/12/09 05:08:30;;;;;;;;;;;33.90;79.10;;;;;;4965088;28;19906;-81
2023/12/09 05:10:58;;;;;;;;;;;33.90;79.10;;;;;;4963089;28;20017;-71
2023/12/09 05:13:24;;;;;;;;;;;33.80;79.60;;;;;;4960772;28;20338;-76
2023/12/09 05:15:51;;;;;;;;;;;33.80;79.60;;;;;;4965723;28;20004;-74
2023/12/09 05:18:17;;;;;;;;;;;33.70;79.20;;;;;;4962600;28;20327;-71
2023/12/09 05:20:45;;;;;;;;;;;33.80;78.70;;;;;;4964821;28;20421;-70
2023/12/09 05:23:11;;;;;;;;;;;33.70;78.70;;;;;;4961577;28;19910;-71
2023/12/09 05:25:38;;;;;;;;;;;33.70;78.50;;;;;;4962208;28;19921;-73
2023/12/09 05:28:04;;;;;;;;;;;33.60;78.70;;;;;;4962222;28;20369;-72
2023/12/09 05:30:31;;;;;;;;;;;33.50;79.20;;;;;;4964358;28;20287;-70
2023/12/09 05:32:58;;;;;;;;;;;33.50;79.10;;;;;;4960402;28;19953;-71
2023/12/09 05:35:25;;;;;;;;;;;33.40;79.30;;;;;;4961268;28;19918;-74
2023/12/09 05:37:52;;;;;;;;;;;33.40;79.80;;;;;;4961529;28;19918;-72
2023/12/09 05:40:19;;;;;;;;;;;33.40;79.80;;;;;;4964430;28;19915;-72
2023/12/09 05:42:46;;;;;;;;;;;33.40;80.20;;;;;;4965768;28;19916;-71
2023/12/09 05:45:13;;;;;;;;;;;33.50;80.60;;;;;;4964700;28;20434;-77
2023/12/09 05:47:39;;;;;;;;;;;33.80;80.40;;;;;;4962127;28;19975;-71
2023/12/09 05:50:06;;;;;;;;;;;34.20;80.10;;;;;;4960754;28;19918;-69
2023/12/09 05:52:33;;;;;;;;;;;34.90;79.60;;;;;;4963001;28;19918;-70
2023/12/09 05:54:59;;;;;;;;;;;35.40;78.60;;;;;;4965025;28;19921;-73
2023/12/09 05:57:26;;;;;;;;;;;35.50;78.10;;;;;;4962992;28;19910;-70
2023/12/09 05:59:53;;;;;;;;;;;35.50;77.60;;;;;;4960422;28;19914;-76
2023/12/09 06:02:19;;;;;;;;;;;35.40;77.60;;;;;;4967196;28;19918;-72
2023/12/09 06:04:46;;;;;;;;;;;35.30;77.40;;;;;;4968445;28;19914;-73
2023/12/09 06:07:12;;;;;;;;;;;35.10;77.30;;;;;;4970478;28;19999;-71
2023/12/09 06:09:39;;;;;;;;;;;35.00;76.70;;;;;;4970851;28;20387;-76
2023/12/09 06:12:06;;;;;;;;;;;34.80;76.50;;;;;;4971227;28;19949;-78
2023/12/09 06:14:33;;;;;;;;;;;34.70;76.70;;;;;;5001043;28;20436;-75
2023/12/09 06:17:00;;;;;;;;;;;34.70;76.40;;;;;;4989485;28;19917;-78
2023/12/09 06:19:27;;;;;;;;;;;34.80;76.60;;;;;;4969635;28;20359;-72
2023/12/09 06:21:54;;;;;;;;;;;34.80;75.20;;;;;;4964982;28;19926;-80
2023/12/09 06:24:21;;;;;;;;;;;34.90;74.20;;;;;;4974355;28;20264;-79
2023/12/09 06:26:48;;;;;;;;;;;34.90;73.40;;;;;;4991266;28;19925;-79
2023/12/09 06:29:15;;;;;;;;;;;35.00;72.40;;;;;;4968645;28;20346;-80
2023/12/09 06:31:41;;;;;;;;;;;35.00;72.20;;;;;;4975226;28;19914;-81
2023/12/09 06:34:08;;;;;;;;;;;35.20;71.10;;;;;;4969791;28;20371;-72
2023/12/09 06:36:35;;;;;;;;;;;35.30;70.80;;;;;;4963534;28;19921;-75
2023/12/09 06:39:01;;;;;;;;;;;35.50;70.70;;;;;;4968623;28;20009;-77
2023/12/09 06:41:28;;;;;;;;;;;35.80;70.20;;;;;;4970049;28;20055;-75
2023/12/09 06:43:54;;;;;;;;;;;36.00;69.10;;;;;;4969347;28;19957;-77
2023/12/09 06:46:21;;;;;;;;;;;36.10;67.70;;;;;;5034699;28;19923;-72
2023/12/09 06:48:48;;;;;;;;;;;36.20;67.80;;;;;;4993859;28;19917;-71
2023/12/09 06:51:15;;;;;;;;;;;36.20;67.70;;;;;;4963948;28;19914;-74
2023/12/09 06:53:42;;;;;;;;;;;36.20;67.10;;;;;;4973704;28;19957;-74
2023/12/09 06:56:18;;;;;;;;;;;36.20;67.00;;;;;;4968180;28;20093;-75
2023/12/09 06:58:45;;;;;;;;;;;36.10;66.50;;;;;;4968104;28;19918;-77
2023/12/09 07:01:24;;;;;;;;;;;36.10;66.50;;;;;;4973420;28;19926;-77
2023/12/09 07:03:51;;;;;;;;;;;36.20;66.60;;;;;;4973789;28;19910;-76
2023/12/09 07:06:20;;;;;;;;;;;36.10;66.80;;;;;;4972798;28;19968;-77
2023/12/09 07:08:47;;;;;;;;;;;36.00;66.90;;;;;;4969850;28;19930;-84
2023/12/09 07:11:14;;;;;;;;;;;35.90;67.20;;;;;;4965673;28;19929;-80
2023/12/09 07:13:41;;;;;;;;;;;35.90;66.90;;;;;;4972373;28;19915;-85
2023/12/09 07:16:09;;;;;;;;;;;35.80;67.00;;;;;;4973645;28;20000;-76
2023/12/09 07:18:42;;;;;;;;;;;35.80;65.70;;;;;;4972578;28;19921;-83
2023/12/09 07:21:09;;;;;;;;;;;35.90;66.00;;;;;;4965924;28;19931;-76
2023/12/09 07:23:36;;;;;;;;;;;35.90;66.50;;;;;;4963480;28;20291;-78
2023/12/09 07:26:03;;;;;;;;;;;35.80;67.00;;;;;;4953797;28;19922;-77
2023/12/09 07:28:29;;;;;;;;;;;35.90;67.60;;;;;;4965920;28;19967;-79
2023/12/09 07:30:56;;;;;;;;;;;35.90;68.60;;;;;;4961790;28;19921;-76
2023/12/09 07:33:23;;;;;;;;;;;35.80;69.10;;;;;;4972533;28;20386;-70
2023/12/09 07:35:50;;;;;;;;;;;35.80;69.90;;;;;;4972388;28;19910;-71
2023/12/09 07:38:17;;;;;;;;;;;35.60;70.60;;;;;;4972633;28;19918;-74
2023/12/09 07:40:46;;;;;;;;;;;35.40;72.00;;;;;;4972644;28;19922;-76
2023/12/09 07:43:13;;;;;;;;;;;35.20;72.70;;;;;;4972936;28;19911;-73
2023/12/09 07:45:39;;;;;;;;;;;35.00;73.90;;;;;;4959082;28;20466;-76
2023/12/09 07:48:07;;;;;;;;;;;34.70;74.50;;;;;;4952776;28;19911;-80
2023/12/09 07:50:36;;;;;;;;;;;34.50;75.30;;;;;;4963704;28;19918;-77
2023/12/09 07:53:04;;;;;;;;;;;34.30;75.80;;;;;;4963950;28;19914;-71
2023/12/09 07:55:30;;;;;;;;;;;33.90;76.40;;;;;;4964273;28;19918;-71
2023/12/09 07:57:57;;;;;;;;;;;33.80;76.90;;;;;;4965755;28;20334;-70
2023/12/09 08:00:27;;;;;;;;;;;33.60;77.10;;;;;;4964181;28;19918;-75
2023/12/09 08:02:57;;;;;;;;;;;33.50;77.30;;;;;;4969257;28;19965;-76
2023/12/09 08:05:23;;;;;;;;;;;33.30;77.40;;;;;;4972387;28;20291;-82
2023/12/09 08:07:51;;;;;;;;;;;33.20;77.70;;;;;;4973033;28;19922;-84
2023/12/09 08:10:19;;;;;;;;;;;33.10;77.80;;;;;;4957983;28;20349;-79
2023/12/09 08:12:45;;;;;;;;;;;33.10;78.00;;;;;;4972868;28;19954;-76
2023/12/09 08:15:13;;;;;;;;;;;33.10;78.10;;;;;;4957852;28;20343;-76
2023/12/09 08:17:40;;;;;;;;;;;33.10;78.30;;;;;;4979072;28;19996;-75
2023/12/09 08:20:08;;;;;;;;;;;33.10;79.00;;;;;;4965588;28;19918;-74
2023/12/09 08:22:41;;;;;;;;;;;32.90;80.50;;;;;;4961119;28;19980;-75
2023/12/09 08:25:09;;;;;;;;;;;32.60;82.40;;;;;;4963018;28;19917;-71
2023/12/09 08:27:38;;;;;;;;;;;32.20;85.60;;;;;;4962209;28;20005;-76
2023/12/09 08:30:10;;;;;;;;;;;31.70;88.30;;;;;;4963874;28;19915;-75
2023/12/09 08:32:38;;;;;;;;;;;31.30;90.40;;;;;;4970694;28;20005;-80
2023/12/09 08:35:06;;;;;;;;;;;30.80;91.50;;;;;;4967110;28;19923;-74
2023/12/09 08:37:32;;;;;;;;;;;30.30;92.70;;;;;;4963814;28;20013;-78
2023/12/09 08:40:05;;;;;;;;;;;29.80;94.30;;;;;;4972061;28;19946;-74
2023/12/09 08:42:32;;;;;;;;;;;29.40;95.70;;;;;;4971160;28;19933;-75
2023/12/09 08:44:59;;;;;;;;;;;29.00;96.80;;;;;;4971872;28;20396;-73
2023/12/09 08:47:25;;;;;;;;;;;28.80;97.90;;;;;;4971429;28;19953;-72
2023/12/09 08:49:52;;;;;;;;;;;28.70;98.80;;;;;;4971886;28;19917;-76
2023/12/09 08:52:20;;;;;;;;;;;28.50;99.70;;;;;;4963459;28;20431;-77
2023/12/09 08:54:46;;;;;;;;;;;28.30;99.90;;;;;;4957831;28;19914;-83
2023/12/09 08:57:13;;;;;;;;;;;28.10;99.90;;;;;;4971984;28;19918;-81
2023/12/09 08:59:40;;;;;;;;;;;28.00;99.90;;;;;;4971860;28;20282;-77
2023/12/09 09:02:06;;;;;;;;;;;27.90;99.90;;;;;;4972046;28;19922;-74
2023/12/09 09:04:33;;;;;;;;;;;27.80;99.90;;;;;;4971750;28;20280;-81
2023/12/09 09:07:02;;;;;;;;;;;27.60;99.90;;;;;;4972330;28;19915;-78
2023/12/09 09:09:29;;;;;;;;;;;27.40;99.90;;;;;;4971702;28;19917;-72
2023/12/09 09:12:00;;;;;;;;;;;27.30;99.90;;;;;;4974220;28;19920;-81
2023/12/09 09:14:28;;;;;;;;;;;27.10;99.90;;;;;;4972325;28;20009;-79
2023/12/09 09:16:54;;;;;;;;;;;27.00;99.90;;;;;;4972630;28;19914;-80
2023/12/09 09:19:22;;;;;;;;;;;26.90;99.90;;;;;;4962288;28;19914;-79
2023/12/09 09:21:49;;;;;;;;;;;26.90;99.90;;;;;;4966278;28;19971;-76
2023/12/09 09:24:17;;;;;;;;;;;26.80;99.90;;;;;;4972350;28;19963;-75
2023/12/09 09:26:44;;;;;;;;;;;26.70;99.90;;;;;;4971031;28;19922;-75
2023/12/09 09:29:10;;;;;;;;;;;26.60;99.90;;;;;;4972187;28;19961;-87
2023/12/09 09:31:37;;;;;;;;;;;26.60;99.90;;;;;;4972259;28;19914;-74
2023/12/09 09:34:03;;;;;;;;;;;26.60;99.90;;;;;;4988201;28;19924;-79
2023/12/09 09:36:30;;;;;;;;;;;26.50;99.90;;;;;;4971577;28;20366;-85
2023/12/09 09:38:57;;;;;;;;;;;26.40;99.90;;;;;;4971740;28;19915;-82
2023/12/09 09:41:28;;;;;;;;;;;26.20;99.90;;;;;;4969688;28;19929;-75
2023/12/09 09:43:59;;;;;;;;;;;26.20;99.90;;;;;;4963666;28;19921;-79
2023/12/09 09:46:26;;;;;;;;;;;26.20;99.90;;;;;;4950681;28;19963;-73
2023/12/09 09:48:53;;;;;;;;;;;26.10;99.90;;;;;;4969589;28;19915;-83
2023/12/09 09:51:28;;;;;;;;;;;26.10;99.90;;;;;;4970526;28;19914;-79
2023/12/09 09:54:03;;;;;;;;;;;26.00;99.90;;;;;;4980926;28;20271;-81
2023/12/09 09:56:31;;;;;;;;;;;25.90;99.90;;;;;;4971235;28;19910;-72
2023/12/09 09:58:57;;;;;;;;;;;25.80;99.90;;;;;;4976287;28;20403;-78
2023/12/09 10:01:26;;;;;;;;;;;25.80;99.90;;;;;;4963956;28;19930;-72
2023/12/09 10:03:53;;;;;;;;;;;25.70;99.90;;;;;;4965990;28;19915;-74
2023/12/09 10:06:20;;;;;;;;;;;25.60;99.90;;;;;;5046153;28;20022;-81
2023/12/09 10:08:46;;;;;;;;;;;25.60;99.90;;;;;;4967318;28;19914;-75
2023/12/09 10:11:13;;;;;;;;;;;25.60;99.90;;;;;;4967393;28;19914;-75
2023/12/09 10:13:41;;;;;;;;;;;25.60;99.90;;;;;;4970156;28;20295;-77
2023/12/09 10:16:08;;;;;;;;;;;25.50;99.90;;;;;;4958059;28;19914;-75
2023/12/09 10:18:35;;;;;;;;;;;25.40;99.90;;;;;;4967546;28;20957;-83
2023/12/09 10:21:02;;;;;;;;;;;25.30;99.90;;;;;;4968669;28;19926;-78
2023/12/09 10:23:29;;;;;;;;;;;25.30;99.90;;;;;;4958429;28;19914;-79
2023/12/09 10:25:58;;;;;;;;;;;25.30;99.90;;;;;;4951479;28;19914;-73
2023/12/09 10:28:24;;;;;;;;;;;25.30;99.90;;;;;;4962709;28;19961;-72
2023/12/09 10:30:51;;;;;;;;;;;25.30;99.90;;;;;;4969262;28;19948;-74
2023/12/09 10:33:18;;;;;;;;;;;25.30;99.90;;;;;;4979881;28;19971;-70
2023/12/09 10:35:44;;;;;;;;;;;25.20;99.90;;;;;;4959041;28;19921;-76
2023/12/09 10:38:14;;;;;;;;;;;25.20;99.90;;;;;;4960620;28;19914;-77
2023/12/09 10:40:41;;;;;;;;;;;25.10;99.90;;;;;;4969252;28;20348;-77
2023/12/09 10:43:08;;;;;;;;;;;25.10;99.90;;;;;;4965726;28;19919;-70
2023/12/09 10:45:35;;;;;;;;;;;25.10;99.90;;;;;;4968854;28;19922;-77
2023/12/09 10:48:03;;;;;;;;;;;25.10;99.90;;;;;;4969343;28;19922;-77
2023/12/09 10:50:33;;;;;;;;;;;25.00;99.90;;;;;;4968891;28;19922;-73
2023/12/09 10:52:59;;;;;;;;;;;25.00;99.90;;;;;;4970962;28;19914;-72
2023/12/09 10:55:26;;;;;;;;;;;25.00;99.90;;;;;;4971141;28;19910;-80
2023/12/09 10:57:54;;;;;;;;;;;24.90;99.90;;;;;;4963978;28;19919;-78
2023/12/09 11:00:22;;;;;;;;;;;24.90;99.90;;;;;;4974709;28;19911;-74
2023/12/09 11:02:49;;;;;;;;;;;24.90;99.90;;;;;;4975471;28;19925;-74
2023/12/09 11:05:16;;;;;;;;;;;24.90;99.90;;;;;;4974137;28;19916;-72
2023/12/09 11:07:44;;;;;;;;;;;24.90;99.90;;;;;;4961486;28;19918;-76
2023/12/09 11:10:11;;;;;;;;;;;24.80;99.90;;;;;;4970529;28;20004;-72
2023/12/09 11:12:37;;;;;;;;;;;24.70;99.90;;;;;;4959460;28;19922;-77
2023/12/09 11:15:30;;;;;;;;;;;24.70;99.90;;;;;;4971318;28;19911;-80
2023/12/09 11:18:07;;;;;;;;;;;24.70;99.90;;;;;;4972176;28;20415;-80
2023/12/09 11:20:36;;;;;;;;;;;24.70;99.90;;;;;;4972387;28;19922;-72
2023/12/09 11:23:04;;;;;;;;;;;24.70;99.90;;;;;;4974864;28;19918;-76
2023/12/09 11:25:30;;;;;;;;;;;24.60;99.90;;;;;;4974876;28;19918;-74
2023/12/09 11:28:00;;;;;;;;;;;24.60;99.90;;;;;;4975833;28;19921;-72
2023/12/09 11:30:34;;;;;;;;;;;24.60;99.90;;;;;;4969821;28;19914;-76
2023/12/09 11:33:04;;;;;;;;;;;24.60;99.90;;;;;;4970792;28;19914;-74
2023/12/09 11:35:33;;;;;;;;;;;24.60;99.90;;;;;;4974363;28;19910;-81
2023/12/09 11:38:00;;;;;;;;;;;24.60;99.90;;;;;;4974121;28;20278;-82
2023/12/09 11:40:30;;;;;;;;;;;24.60;99.90;;;;;;4973328;28;19918;-80
2023/12/09 11:42:58;;;;;;;;;;;24.50;99.90;;;;;;4972378;28;19914;-75
2023/12/09 11:45:25;;;;;;;;;;;24.60;99.90;;;;;;4972536;28;19925;-77
2023/12/09 11:47:53;;;;;;;;;;;24.60;99.90;;;;;;4973178;28;19996;-80
2023/12/09 11:50:19;;;;;;;;;;;24.60;99.90;;;;;;4973113;28;19956;-76
2023/12/09 11:52:47;;;;;;;;;;;24.60;99.90;;;;;;5044339;28;19910;-79
2023/12/09 11:55:15;;;;;;;;;;;24.50;99.90;;;;;;4964031;28;19914;-77
2023/12/09 11:57:42;;;;;;;;;;;24.50;99.90;;;;;;4956686;28;19936;-77
2023/12/09 12:00:11;;;;;;;;;;;24.50;99.90;;;;;;4973388;28;19918;-78
2023/12/09 12:02:43;;;;;;;;;;;24.50;99.90;;;;;;4965681;28;20405;-72
2023/12/09 12:05:13;;;;;;;;;;;24.40;99.90;;;;;;4962164;28;19914;-81
2023/12/09 12:07:40;;;;;;;;;;;24.40;99.90;;;;;;4964445;28;19918;-79
2023/12/09 12:10:08;;;;;;;;;;;24.30;99.90;;;;;;4964894;28;19911;-72
2023/12/09 12:12:35;;;;;;;;;;;24.30;99.90;;;;;;4963702;28;20001;-73
2023/12/09 12:15:02;;;;;;;;;;;24.30;99.90;;;;;;4963012;28;19930;-74
2023/12/09 12:17:36;;;;;;;;;;;24.20;99.90;;;;;;4963984;28;19918;-76
2023/12/09 12:20:05;;;;;;;;;;;24.10;99.90;;;;;;4965121;28;19919;-74
2023/12/09 12:22:32;;;;;;;;;;;24.10;99.90;;;;;;4967661;28;20021;-76
2023/12/09 12:24:58;;;;;;;;;;;24.00;99.90;;;;;;4964890;28;19992;-76
2023/12/09 12:27:25;;;;;;;;;;;24.00;99.90;;;;;;4963158;28;19915;-72
2023/12/09 12:29:52;;;;;;;;;;;23.90;99.90;;;;;;4965714;28;20429;-71
2023/12/09 12:32:19;;;;;;;;;;;23.90;99.90;;;;;;4962595;28;20496;-77
2023/12/09 12:34:45;;;;;;;;;;;23.80;99.90;;;;;;4963396;28;19915;-76
2023/12/09 12:37:12;;;;;;;;;;;23.80;99.90;;;;;;4964041;28;19957;-80
2023/12/09 12:39:39;;;;;;;;;;;23.80;99.90;;;;;;4965056;28;19975;-78
2023/12/09 12:42:06;;;;;;;;;;;23.70;99.90;;;;;;4964681;28;19918;-79
2023/12/09 12:44:33;;;;;;;;;;;23.70;99.90;;;;;;4964586;28;19922;-70
2023/12/09 12:46:59;;;;;;;;;;;23.70;99.90;;;;;;4962469;28;20005;-75
2023/12/09 12:49:26;;;;;;;;;;;23.70;99.90;;;;;;4967019;28;19910;-75
2023/12/09 12:51:53;;;;;;;;;;;23.70;99.90;;;;;;4963841;28;19917;-70
2023/12/09 12:54:20;;;;;;;;;;;23.70;99.90;;;;;;4965155;28;20375;-71
2023/12/09 12:56:47;;;;;;;;;;;23.60;99.90;;;;;;4962453;28;19910;-71
2023/12/09 12:59:13;;;;;;;;;;;23.60;99.90;;;;;;4963854;28;19914;-73
2023/12/09 13:01:41;;;;;;;;;;;23.60;99.90;;;;;;4959838;28;19918;-73
2023/12/09 13:04:07;;;;;;;;;;;23.50;99.90;;;;;;4969254;28;20379;-74
2023/12/09 13:06:35;;;;;;;;;;;23.50;99.90;;;;;;4965992;28;19922;-77
2023/12/09 13:09:03;;;;;;;;;;;23.50;99.90;;;;;;4969526;28;19910;-73
2023/12/09 13:11:30;;;;;;;;;;;23.50;99.90;;;;;;4964351;28;19914;-74
2023/12/09 13:13:57;;;;;;;;;;;23.40;99.90;;;;;;4962468;28;19921;-72
2023/12/09 13:16:23;;;;;;;;;;;23.40;99.90;;;;;;4971264;28;20274;-72
2023/12/09 13:18:50;;;;;;;;;;;23.30;99.90;;;;;;4969995;28;20311;-76
2023/12/09 13:21:17;;;;;;;;;;;23.30;99.90;;;;;;4970701;28;19922;-71
2023/12/09 13:23:43;;;;;;;;;;;23.20;99.90;;;;;;4970108;28;19918;-70
2023/12/09 13:26:10;;;;;;;;;;;23.20;99.90;;;;;;4971552;28;21001;-71
2023/12/09 13:28:37;;;;;;;;;;;23.10;99.90;;;;;;4964884;28;20410;-72
2023/12/09 13:31:04;;;;;;;;;;;23.10;99.90;;;;;;4953078;28;19964;-74
2023/12/09 13:33:32;;;;;;;;;;;23.00;99.90;;;;;;4970947;28;19918;-71
2023/12/09 13:35:58;;;;;;;;;;;23.10;99.90;;;;;;4971906;28;19979;-74
2023/12/09 13:38:25;;;;;;;;;;;23.00;99.90;;;;;;4970775;28;19917;-72
2023/12/09 13:40:52;;;;;;;;;;;23.00;99.90;;;;;;4963500;28;19945;-72
2023/12/09 13:43:18;;;;;;;;;;;23.00;99.90;;;;;;4952456;28;19911;-71
2023/12/09 13:45:46;;;;;;;;;;;23.00;99.90;;;;;;4955739;28;20104;-71
2023/12/09 13:48:13;;;;;;;;;;;23.00;99.90;;;;;;5073105;28;19908;-70
2023/12/09 13:50:40;;;;;;;;;;;23.00;99.90;;;;;;5072988;28;20258;-73
2023/12/09 13:53:07;;;;;;;;;;;22.90;99.90;;;;;;4971581;28;19921;-73
2023/12/09 13:55:34;;;;;;;;;;;22.90;99.90;;;;;;4950858;28;20264;-72
2023/12/09 13:58:01;;;;;;;;;;;22.90;99.90;;;;;;4952125;28;19911;-71
2023/12/09 14:00:27;;;;;;;;;;;22.90;99.90;;;;;;4955977;28;19921;-71
2023/12/09 14:02:54;;;;;;;;;;;22.80;99.90;;;;;;4969318;28;19937;-71
2023/12/09 14:05:22;;;;;;;;;;;22.80;99.90;;;;;;4956759;28;19921;-72
2023/12/09 14:07:49;;;;;;;;;;;22.70;99.90;;;;;;4967954;28;19914;-72
2023/12/09 14:10:15;;;;;;;;;;;22.70;99.90;;;;;;4971339;28;19917;-74
2023/12/09 14:12:43;;;;;;;;;;;22.70;99.90;;;;;;4971046;28;20359;-70
2023/12/09 14:15:13;;;;;;;;;;;22.70;99.90;;;;;;4962891;28;19996;-79
2023/12/09 14:17:42;;;;;;;;;;;22.70;99.90;;;;;;4953865;28;19964;-75